TFL97T EBBR-EHAM
Flight info
| Callsign | TFL97T |
|---|---|
| Flight time | 0h 36m |
| Altitude | 14000 |
| Route | HELEN |
| Aircraft | B38M/M-SDE1FGHILORVWXY/HB1 |
Departure
| Time | 2026-05-04 13:55 |
|---|---|
| Airport | Brussels Airport (EBBR) |
Arrival
| Time | 2026-05-04 14:32 |
|---|---|
| Airport | Amsterdam Airport Schiphol (EHAM) |
| Time | Latitude | Longitude | Altitude | Speed | Heading |
|---|---|---|---|---|---|
| 2026-05-04 13:54 | 50.53680 | 4.97762 | 14109 ft | 318 kts | 315° |
| 2026-05-04 13:54 | 50.56940 | 4.93038 | 14110 ft | 319 kts | 318° |
| 2026-05-04 13:55 | 50.58607 | 4.90735 | 14109 ft | 319 kts | 318° |
| 2026-05-04 13:55 | 50.61950 | 4.86131 | 14106 ft | 319 kts | 318° |
| 2026-05-04 13:55 | 50.63618 | 4.83833 | 14108 ft | 319 kts | 318° |
| 2026-05-04 13:56 | 50.65289 | 4.81528 | 14102 ft | 319 kts | 318° |
| 2026-05-04 13:56 | 50.66923 | 4.79172 | 14103 ft | 318 kts | 316° |
| 2026-05-04 13:56 | 50.70118 | 4.74323 | 14105 ft | 319 kts | 316° |
| 2026-05-04 13:57 | 50.71786 | 4.71900 | 14108 ft | 338 kts | 317° |
| 2026-05-04 13:57 | 50.73561 | 4.69406 | 14108 ft | 342 kts | 318° |
| 2026-05-04 13:58 | 50.78973 | 4.61913 | 14112 ft | 346 kts | 318° |
| 2026-05-04 13:58 | 50.82596 | 4.56956 | 14118 ft | 344 kts | 318° |
| 2026-05-04 13:58 | 50.84386 | 4.54426 | 14117 ft | 344 kts | 317° |
| 2026-05-04 13:59 | 50.86221 | 4.51996 | 14117 ft | 345 kts | 322° |
| 2026-05-04 13:59 | 50.88154 | 4.49705 | 14114 ft | 348 kts | 321° |
| 2026-05-04 13:59 | 50.91607 | 4.44376 | 14119 ft | 347 kts | 308° |
| 2026-05-04 14:00 | 50.93097 | 4.41435 | 14108 ft | 347 kts | 308° |
| 2026-05-04 14:00 | 50.96320 | 4.35720 | 14119 ft | 348 kts | 312° |
| 2026-05-04 14:00 | 50.97959 | 4.32877 | 14104 ft | 348 kts | 311° |
| 2026-05-04 14:01 | 50.99556 | 4.30002 | 14106 ft | 348 kts | 310° |
| 2026-05-04 14:01 | 51.01158 | 4.27116 | 14105 ft | 348 kts | 310° |
| 2026-05-04 14:01 | 51.04384 | 4.21389 | 14105 ft | 348 kts | 311° |
| 2026-05-04 14:02 | 51.05989 | 4.18523 | 14104 ft | 347 kts | 310° |
| 2026-05-04 14:02 | 51.07594 | 4.15645 | 14101 ft | 347 kts | 310° |
| 2026-05-04 14:02 | 51.09197 | 4.12776 | 14104 ft | 347 kts | 310° |
| 2026-05-04 14:02 | 51.10804 | 4.09899 | 14102 ft | 347 kts | 310° |
| 2026-05-04 14:03 | 51.12405 | 4.07027 | 14101 ft | 347 kts | 310° |
| 2026-05-04 14:03 | 51.14009 | 4.04145 | 14100 ft | 347 kts | 310° |
| 2026-05-04 14:03 | 51.15611 | 4.01265 | 14100 ft | 347 kts | 310° |
| 2026-05-04 14:03 | 51.17208 | 3.98389 | 14097 ft | 347 kts | 310° |
| 2026-05-04 14:04 | 51.20410 | 3.92615 | 14094 ft | 347 kts | 310° |
| 2026-05-04 14:04 | 51.22014 | 3.89730 | 14092 ft | 347 kts | 312° |
| 2026-05-04 14:04 | 51.23977 | 3.87531 | 14104 ft | 349 kts | 338° |
| 2026-05-04 14:05 | 51.28796 | 3.86763 | 14107 ft | 351 kts | 0° |
| 2026-05-04 14:05 | 51.31242 | 3.86820 | 14103 ft | 351 kts | 359° |
| 2026-05-04 14:05 | 51.33687 | 3.86775 | 14107 ft | 351 kts | 358° |
| 2026-05-04 14:06 | 51.36128 | 3.86671 | 14102 ft | 351 kts | 358° |
| 2026-05-04 14:06 | 51.38569 | 3.86599 | 14106 ft | 350 kts | 359° |
| 2026-05-04 14:06 | 51.41006 | 3.86560 | 14107 ft | 351 kts | 359° |
| 2026-05-04 14:06 | 51.43450 | 3.86511 | 14105 ft | 351 kts | 358° |
| 2026-05-04 14:07 | 51.45891 | 3.86448 | 14104 ft | 351 kts | 358° |
| 2026-05-04 14:07 | 51.48331 | 3.86386 | 14107 ft | 351 kts | 358° |
| 2026-05-04 14:07 | 51.50769 | 3.86329 | 14109 ft | 351 kts | 358° |
| 2026-05-04 14:07 | 51.53176 | 3.86275 | 14112 ft | 350 kts | 357° |
| 2026-05-04 14:08 | 51.55615 | 3.86217 | 14110 ft | 351 kts | 358° |
| 2026-05-04 14:08 | 51.58055 | 3.86158 | 14115 ft | 351 kts | 358° |
| 2026-05-04 14:08 | 51.60492 | 3.86099 | 14112 ft | 350 kts | 358° |
| 2026-05-04 14:08 | 51.62932 | 3.86043 | 14118 ft | 350 kts | 358° |
| 2026-05-04 14:09 | 51.67805 | 3.85925 | 14123 ft | 350 kts | 358° |
| 2026-05-04 14:09 | 51.70243 | 3.85882 | 14124 ft | 350 kts | 0° |
| 2026-05-04 14:10 | 51.74616 | 3.89034 | 13995 ft | 351 kts | 40° |
| 2026-05-04 14:10 | 51.76400 | 3.91664 | 13738 ft | 344 kts | 42° |
| 2026-05-04 14:10 | 51.78132 | 3.94288 | 13294 ft | 339 kts | 42° |
| 2026-05-04 14:10 | 51.79876 | 3.96800 | 12852 ft | 335 kts | 40° |
| 2026-05-04 14:11 | 51.81621 | 3.99264 | 12414 ft | 331 kts | 41° |
| 2026-05-04 14:11 | 51.85017 | 4.04182 | 11551 ft | 325 kts | 41° |
| 2026-05-04 14:11 | 51.86687 | 4.06607 | 11128 ft | 321 kts | 41° |
| 2026-05-04 14:12 | 51.88346 | 4.09005 | 10707 ft | 319 kts | 41° |
| 2026-05-04 14:12 | 51.89988 | 4.11383 | 10291 ft | 317 kts | 42° |
| 2026-05-04 14:12 | 51.93220 | 4.16081 | 9987 ft | 309 kts | 42° |
| 2026-05-04 14:13 | 51.94820 | 4.18410 | 9982 ft | 308 kts | 42° |
| 2026-05-04 14:13 | 51.96412 | 4.20728 | 9981 ft | 307 kts | 42° |
| 2026-05-04 14:13 | 51.98002 | 4.23045 | 9981 ft | 308 kts | 42° |
| 2026-05-04 14:13 | 51.99588 | 4.25361 | 9979 ft | 306 kts | 42° |
| 2026-05-04 14:14 | 52.01175 | 4.27678 | 9977 ft | 307 kts | 42° |
| 2026-05-04 14:14 | 52.04322 | 4.32284 | 9991 ft | 306 kts | 42° |
| 2026-05-04 14:14 | 52.05905 | 4.34603 | 9991 ft | 307 kts | 42° |
| 2026-05-04 14:15 | 52.09071 | 4.39249 | 9990 ft | 307 kts | 42° |
| 2026-05-04 14:15 | 52.12241 | 4.43910 | 9989 ft | 306 kts | 42° |
| 2026-05-04 14:16 | 52.15409 | 4.48578 | 9992 ft | 307 kts | 42° |
| 2026-05-04 14:16 | 52.16986 | 4.50905 | 9992 ft | 306 kts | 42° |
| 2026-05-04 14:17 | 52.20147 | 4.55576 | 9996 ft | 307 kts | 42° |
| 2026-05-04 14:17 | 52.21734 | 4.57925 | 9995 ft | 310 kts | 42° |
| 2026-05-04 14:17 | 52.24813 | 4.62488 | 9994 ft | 310 kts | 42° |
| 2026-05-04 14:18 | 52.26411 | 4.64859 | 9983 ft | 311 kts | 42° |
| 2026-05-04 14:18 | 52.29581 | 4.69574 | 9991 ft | 299 kts | 42° |
| 2026-05-04 14:19 | 52.32523 | 4.73957 | 9988 ft | 274 kts | 42° |
| 2026-05-04 14:19 | 52.33897 | 4.76012 | 9987 ft | 262 kts | 44° |
| 2026-05-04 14:19 | 52.34952 | 4.78340 | 9990 ft | 250 kts | 65° |
| 2026-05-04 14:19 | 52.35462 | 4.80985 | 9994 ft | 240 kts | 83° |
| 2026-05-04 14:20 | 52.35446 | 4.83670 | 9986 ft | 236 kts | 103° |
| 2026-05-04 14:20 | 52.34749 | 4.86006 | 10012 ft | 228 kts | 142° |
| 2026-05-04 14:20 | 52.33342 | 4.86976 | 10021 ft | 221 kts | 184° |
| 2026-05-04 14:21 | 52.31289 | 4.83964 | 10053 ft | 220 kts | 266° |
| 2026-05-04 14:21 | 52.31653 | 4.81529 | 9825 ft | 227 kts | 296° |
| 2026-05-04 14:21 | 52.32423 | 4.79229 | 9476 ft | 232 kts | 294° |
| 2026-05-04 14:21 | 52.33006 | 4.76804 | 9170 ft | 234 kts | 284° |
| 2026-05-04 14:22 | 52.33372 | 4.74204 | 8861 ft | 236 kts | 279° |
| 2026-05-04 14:22 | 52.33695 | 4.71557 | 8540 ft | 239 kts | 281° |
| 2026-05-04 14:22 | 52.34061 | 4.68883 | 8221 ft | 242 kts | 282° |
| 2026-05-04 14:22 | 52.34449 | 4.66181 | 7877 ft | 245 kts | 281° |
| 2026-05-04 14:23 | 52.33727 | 4.60911 | 7226 ft | 248 kts | 238° |
| 2026-05-04 14:23 | 52.32722 | 4.58586 | 6892 ft | 254 kts | 224° |
| 2026-05-04 14:23 | 52.31227 | 4.57075 | 6561 ft | 256 kts | 198° |
| 2026-05-04 14:24 | 52.29468 | 4.56820 | 6299 ft | 256 kts | 172° |
| 2026-05-04 14:24 | 52.27825 | 4.57826 | 6143 ft | 251 kts | 147° |
| 2026-05-04 14:24 | 52.26580 | 4.59743 | 6117 ft | 241 kts | 136° |
| 2026-05-04 14:24 | 52.25231 | 4.61331 | 5721 ft | 244 kts | 157° |
| 2026-05-04 14:25 | 52.23623 | 4.62375 | 5429 ft | 247 kts | 152° |
| 2026-05-04 14:25 | 52.20778 | 4.64158 | 6065 ft | 216 kts | 170° |
| 2026-05-04 14:25 | 52.19307 | 4.64665 | 5913 ft | 217 kts | 169° |
| 2026-05-04 14:26 | 52.17800 | 4.65191 | 5522 ft | 225 kts | 172° |
| 2026-05-04 14:26 | 52.16357 | 4.64703 | 5537 ft | 211 kts | 218° |
| 2026-05-04 14:26 | 52.15393 | 4.62929 | 5474 ft | 212 kts | 236° |
| 2026-05-04 14:26 | 52.14843 | 4.60677 | 5003 ft | 224 kts | 270° |
| 2026-05-04 14:27 | 52.15351 | 4.58274 | 4543 ft | 235 kts | 310° |
| 2026-05-04 14:27 | 52.16707 | 4.56718 | 4041 ft | 246 kts | 332° |
| 2026-05-04 14:27 | 52.18257 | 4.55436 | 3552 ft | 249 kts | 330° |
| 2026-05-04 14:27 | 52.19719 | 4.54417 | 3079 ft | 210 kts | 347° |
| 2026-05-04 14:28 | 52.21022 | 4.54624 | 2680 ft | 173 kts | 22° |
| 2026-05-04 14:28 | 52.21918 | 4.55669 | 2509 ft | 153 kts | 49° |
| 2026-05-04 14:28 | 52.22490 | 4.57069 | 2316 ft | 143 kts | 57° |
| 2026-05-04 14:28 | 52.22988 | 4.58427 | 2141 ft | 139 kts | 59° |
| 2026-05-04 14:29 | 52.23987 | 4.61146 | 1820 ft | 140 kts | 55° |
| 2026-05-04 14:29 | 52.25018 | 4.63799 | 1436 ft | 137 kts | 54° |
| 2026-05-04 14:30 | 52.25524 | 4.65095 | 1239 ft | 134 kts | 52° |
| 2026-05-04 14:30 | 52.26022 | 4.66382 | 1049 ft | 132 kts | 52° |
| 2026-05-04 14:30 | 52.27012 | 4.68902 | 705 ft | 129 kts | 55° |
| 2026-05-04 14:31 | 52.27480 | 4.70106 | 544 ft | 125 kts | 55° |
| 2026-05-04 14:31 | 52.28376 | 4.72398 | 112 ft | 118 kts | 52° |
| 2026-05-04 14:32 | 52.29173 | 4.74422 | 3 ft | 69 kts | 54° |
| 2026-05-04 14:32 | 52.29370 | 4.74891 | -1 ft | 41 kts | 55° |
| 2026-05-04 14:32 | 52.29515 | 4.75257 | -2 ft | 33 kts | 56° |
| 2026-05-04 14:32 | 52.29648 | 4.75328 | 2 ft | 18 kts | 334° |
| 2026-05-04 14:33 | 52.29684 | 4.75299 | -1 ft | 1 kts | 334° |
| 2026-05-04 14:33 | 52.29693 | 4.75292 | -1 ft | 0 kts | 334° |
| 2026-05-04 14:35 | 52.29694 | 4.75291 | -1 ft | 1 kts | 334° |
| 2026-05-04 14:35 | 52.29707 | 4.75290 | 0 ft | 2 kts | 7° |
| 2026-05-04 14:36 | 52.29719 | 4.75289 | -1 ft | 3 kts | 356° |
| 2026-05-04 14:36 | 52.29751 | 4.75286 | -1 ft | 6 kts | 358° |
| 2026-05-04 14:36 | 52.29799 | 4.75309 | -1 ft | 9 kts | 27° |
| 2026-05-04 14:36 | 52.29853 | 4.75380 | -1 ft | 11 kts | 47° |
| 2026-05-04 14:37 | 52.29903 | 4.75495 | -1 ft | 14 kts | 56° |
| 2026-05-04 14:37 | 52.29962 | 4.75631 | -1 ft | 16 kts | 57° |
| 2026-05-04 14:37 | 52.30018 | 4.75795 | -2 ft | 17 kts | 59° |
| 2026-05-04 14:37 | 52.30086 | 4.75970 | 0 ft | 19 kts | 56° |
| 2026-05-04 14:38 | 52.30159 | 4.76158 | -1 ft | 20 kts | 58° |
| 2026-05-04 14:38 | 52.30236 | 4.76356 | -1 ft | 21 kts | 58° |
| 2026-05-04 14:38 | 52.30317 | 4.76548 | -1 ft | 13 kts | 53° |
| 2026-05-04 14:38 | 52.30330 | 4.76575 | -1 ft | 1 kts | 47° |
| 2026-05-04 14:39 | 52.30337 | 4.76583 | -1 ft | 3 kts | 34° |
| 2026-05-04 14:39 | 52.30361 | 4.76587 | -1 ft | 4 kts | 345° |
| 2026-05-04 14:39 | 52.30389 | 4.76558 | 0 ft | 1 kts | 332° |
| 2026-05-04 14:40 | 52.30412 | 4.76556 | -1 ft | 1 kts | 23° |
| 2026-05-04 14:40 | 52.30420 | 4.76567 | -1 ft | 3 kts | 43° |
| 2026-05-04 14:40 | 52.30425 | 4.76581 | 0 ft | 3 kts | 56° |
| 2026-05-04 14:40 | 52.30427 | 4.76586 | -1 ft | 0 kts | 56° |